TAF Text Data
IDs:
Format:
Raw Decoded Include METAR

Data at: 2132 UTC 02 Aug 2021

KTUP 021720Z 0218/0318 05005KT P6SM VCSH FEW250
  FM022100 VRB04KT P6SM OVC100
  FM030500 VRB04KT 4SM BR OVC100
  FM031400 05007KT P6SM FEW250